sensor_id;sensor_type;location;lat;lon;timestamp;P1;durP1;ratioP1;P2;durP2;ratioP2
20832;SDS011;56075;51.264;7.150;2023-06-22T00:01:43;8.18;;;3.50;;
20832;SDS011;56075;51.264;7.150;2023-06-22T00:04:14;5.03;;;3.58;;
20832;SDS011;56075;51.264;7.150;2023-06-22T00:06:45;7.00;;;3.67;;
20832;SDS011;56075;51.264;7.150;2023-06-22T00:09:16;7.32;;;3.13;;
20832;SDS011;56075;51.264;7.150;2023-06-22T00:11:47;5.13;;;3.15;;
20832;SDS011;56075;51.264;7.150;2023-06-22T00:14:18;6.65;;;3.20;;
20832;SDS011;56075;51.264;7.150;2023-06-22T00:16:49;5.38;;;3.38;;
20832;SDS011;56075;51.264;7.150;2023-06-22T00:19:25;4.93;;;2.80;;
20832;SDS011;56075;51.264;7.150;2023-06-22T00:21:56;6.45;;;3.40;;
20832;SDS011;56075;51.264;7.150;2023-06-22T00:24:31;5.15;;;3.28;;
20832;SDS011;56075;51.264;7.150;2023-06-22T00:27:02;4.80;;;3.08;;
20832;SDS011;56075;51.264;7.150;2023-06-22T00:29:36;4.78;;;3.30;;
20832;SDS011;56075;51.264;7.150;2023-06-22T00:32:07;6.80;;;3.13;;
20832;SDS011;56075;51.264;7.150;2023-06-22T00:34:38;4.72;;;3.08;;
20832;SDS011;56075;51.264;7.150;2023-06-22T00:37:09;5.78;;;3.58;;
20832;SDS011;56075;51.264;7.150;2023-06-22T00:39:42;7.78;;;3.88;;
20832;SDS011;56075;51.264;7.150;2023-06-22T00:42:13;8.50;;;3.55;;
20832;SDS011;56075;51.264;7.150;2023-06-22T00:44:45;6.15;;;3.88;;
20832;SDS011;56075;51.264;7.150;2023-06-22T00:47:16;7.88;;;3.92;;
20832;SDS011;56075;51.264;7.150;2023-06-22T00:49:49;5.63;;;3.80;;
20832;SDS011;56075;51.264;7.150;2023-06-22T00:52:23;6.32;;;4.03;;
20832;SDS011;56075;51.264;7.150;2023-06-22T00:55:00;6.28;;;3.67;;
20832;SDS011;56075;51.264;7.150;2023-06-22T00:57:32;7.65;;;3.95;;
20832;SDS011;56075;51.264;7.150;2023-06-22T01:00:08;6.13;;;3.67;;
20832;SDS011;56075;51.264;7.150;2023-06-22T01:02:40;8.05;;;4.43;;
20832;SDS011;56075;51.264;7.150;2023-06-22T01:05:15;7.55;;;4.13;;
20832;SDS011;56075;51.264;7.150;2023-06-22T01:07:57;8.57;;;3.85;;
20832;SDS011;56075;51.264;7.150;2023-06-22T01:10:40;8.25;;;4.30;;
20832;SDS011;56075;51.264;7.150;2023-06-22T01:16:07;7.00;;;4.35;;
20832;SDS011;56075;51.264;7.150;2023-06-22T01:18:43;9.88;;;4.88;;
20832;SDS011;56075;51.264;7.150;2023-06-22T01:21:16;8.18;;;4.90;;
20832;SDS011;56075;51.264;7.150;2023-06-22T01:24:07;8.13;;;4.57;;
20832;SDS011;56075;51.264;7.150;2023-06-22T01:29:34;7.70;;;3.92;;
20832;SDS011;56075;51.264;7.150;2023-06-22T01:32:09;9.02;;;4.90;;
20832;SDS011;56075;51.264;7.150;2023-06-22T01:34:41;8.45;;;4.20;;
20832;SDS011;56075;51.264;7.150;2023-06-22T01:37:13;7.70;;;4.10;;
20832;SDS011;56075;51.264;7.150;2023-06-22T01:39:45;9.20;;;4.28;;
20832;SDS011;56075;51.264;7.150;2023-06-22T01:42:16;10.85;;;4.57;;
20832;SDS011;56075;51.264;7.150;2023-06-22T01:44:47;8.15;;;4.55;;
20832;SDS011;56075;51.264;7.150;2023-06-22T01:47:22;7.07;;;3.88;;
20832;SDS011;56075;51.264;7.150;2023-06-22T01:49:55;10.05;;;4.47;;
20832;SDS011;56075;51.264;7.150;2023-06-22T01:52:26;6.95;;;4.45;;
20832;SDS011;56075;51.264;7.150;2023-06-22T01:54:57;8.57;;;4.47;;
20832;SDS011;56075;51.264;7.150;2023-06-22T01:57:28;8.88;;;4.65;;
20832;SDS011;56075;51.264;7.150;2023-06-22T02:02:39;7.78;;;4.57;;
20832;SDS011;56075;51.264;7.150;2023-06-22T02:05:23;6.90;;;4.28;;
20832;SDS011;56075;51.264;7.150;2023-06-22T02:08:07;7.72;;;4.43;;
20832;SDS011;56075;51.264;7.150;2023-06-22T02:10:41;8.15;;;4.15;;
20832;SDS011;56075;51.264;7.150;2023-06-22T02:13:13;8.23;;;4.57;;
20832;SDS011;56075;51.264;7.150;2023-06-22T02:15:46;9.43;;;4.45;;
20832;SDS011;56075;51.264;7.150;2023-06-22T02:18:18;8.13;;;4.30;;
20832;SDS011;56075;51.264;7.150;2023-06-22T02:20:50;8.35;;;4.82;;
20832;SDS011;56075;51.264;7.150;2023-06-22T02:23:23;8.63;;;4.72;;
20832;SDS011;56075;51.264;7.150;2023-06-22T02:25:54;5.47;;;3.92;;
20832;SDS011;56075;51.264;7.150;2023-06-22T02:28:28;6.95;;;4.50;;
20832;SDS011;56075;51.264;7.150;2023-06-22T02:31:00;7.53;;;4.28;;
20832;SDS011;56075;51.264;7.150;2023-06-22T02:33:31;7.30;;;5.15;;
20832;SDS011;56075;51.264;7.150;2023-06-22T02:36:04;10.95;;;5.10;;
20832;SDS011;56075;51.264;7.150;2023-06-22T02:38:35;8.27;;;5.05;;
20832;SDS011;56075;51.264;7.150;2023-06-22T02:41:06;7.78;;;5.20;;
20832;SDS011;56075;51.264;7.150;2023-06-22T02:43:38;10.02;;;5.72;;
20832;SDS011;56075;51.264;7.150;2023-06-22T02:46:09;9.50;;;5.35;;
20832;SDS011;56075;51.264;7.150;2023-06-22T02:48:40;7.97;;;5.07;;
20832;SDS011;56075;51.264;7.150;2023-06-22T02:51:12;8.55;;;4.63;;
20832;SDS011;56075;51.264;7.150;2023-06-22T02:53:43;7.00;;;4.53;;
20832;SDS011;56075;51.264;7.150;2023-06-22T02:56:17;6.97;;;4.32;;
20832;SDS011;56075;51.264;7.150;2023-06-22T02:58:49;7.82;;;4.90;;
20832;SDS011;56075;51.264;7.150;2023-06-22T03:01:20;9.05;;;4.32;;
20832;SDS011;56075;51.264;7.150;2023-06-22T03:03:54;6.82;;;4.43;;
20832;SDS011;56075;51.264;7.150;2023-06-22T03:06:26;8.45;;;4.70;;
20832;SDS011;56075;51.264;7.150;2023-06-22T03:09:00;7.55;;;4.60;;
20832;SDS011;56075;51.264;7.150;2023-06-22T03:11:34;10.80;;;4.82;;
20832;SDS011;56075;51.264;7.150;2023-06-22T03:14:05;8.88;;;5.50;;
20832;SDS011;56075;51.264;7.150;2023-06-22T03:16:36;8.23;;;5.05;;
20832;SDS011;56075;51.264;7.150;2023-06-22T03:19:08;10.02;;;5.75;;
20832;SDS011;56075;51.264;7.150;2023-06-22T03:21:39;7.40;;;4.75;;
20832;SDS011;56075;51.264;7.150;2023-06-22T03:24:10;12.27;;;4.72;;
20832;SDS011;56075;51.264;7.150;2023-06-22T03:26:44;7.53;;;4.97;;
20832;SDS011;56075;51.264;7.150;2023-06-22T03:29:17;9.50;;;5.32;;
20832;SDS011;56075;51.264;7.150;2023-06-22T03:31:49;8.43;;;4.97;;
20832;SDS011;56075;51.264;7.150;2023-06-22T03:34:21;8.20;;;5.00;;
20832;SDS011;56075;51.264;7.150;2023-06-22T03:36:56;9.88;;;5.50;;
20832;SDS011;56075;51.264;7.150;2023-06-22T03:39:27;7.20;;;4.75;;
20832;SDS011;56075;51.264;7.150;2023-06-22T03:41:58;12.45;;;5.07;;
20832;SDS011;56075;51.264;7.150;2023-06-22T03:44:30;7.55;;;4.90;;
20832;SDS011;56075;51.264;7.150;2023-06-22T03:47:03;7.75;;;4.82;;
20832;SDS011;56075;51.264;7.150;2023-06-22T03:49:35;9.93;;;5.05;;
20832;SDS011;56075;51.264;7.150;2023-06-22T03:52:06;9.32;;;5.32;;
20832;SDS011;56075;51.264;7.150;2023-06-22T03:54:38;9.52;;;5.15;;
20832;SDS011;56075;51.264;7.150;2023-06-22T03:57:09;9.40;;;5.30;;
20832;SDS011;56075;51.264;7.150;2023-06-22T03:59:41;10.00;;;5.47;;
20832;SDS011;56075;51.264;7.150;2023-06-22T04:02:13;10.63;;;5.05;;
20832;SDS011;56075;51.264;7.150;2023-06-22T04:04:45;11.18;;;5.70;;
20832;SDS011;56075;51.264;7.150;2023-06-22T04:07:16;9.40;;;5.53;;
20832;SDS011;56075;51.264;7.150;2023-06-22T04:09:48;8.73;;;5.20;;
20832;SDS011;56075;51.264;7.150;2023-06-22T04:12:19;10.73;;;5.57;;
20832;SDS011;56075;51.264;7.150;2023-06-22T04:14:50;9.80;;;6.15;;
20832;SDS011;56075;51.264;7.150;2023-06-22T04:17:21;11.60;;;5.90;;
20832;SDS011;56075;51.264;7.150;2023-06-22T04:19:55;11.65;;;5.70;;
20832;SDS011;56075;51.264;7.150;2023-06-22T04:22:26;10.95;;;5.80;;
20832;SDS011;56075;51.264;7.150;2023-06-22T04:24:57;10.65;;;5.82;;
20832;SDS011;56075;51.264;7.150;2023-06-22T04:27:28;11.35;;;6.25;;
20832;SDS011;56075;51.264;7.150;2023-06-22T04:29:59;13.25;;;5.82;;
20832;SDS011;56075;51.264;7.150;2023-06-22T04:32:31;10.50;;;6.10;;
20832;SDS011;56075;51.264;7.150;2023-06-22T04:35:03;13.45;;;6.35;;
20832;SDS011;56075;51.264;7.150;2023-06-22T04:37:35;9.30;;;6.00;;
20832;SDS011;56075;51.264;7.150;2023-06-22T04:40:06;10.50;;;5.80;;
20832;SDS011;56075;51.264;7.150;2023-06-22T04:42:38;10.45;;;5.97;;
20832;SDS011;56075;51.264;7.150;2023-06-22T04:45:09;11.52;;;6.13;;
20832;SDS011;56075;51.264;7.150;2023-06-22T04:47:41;10.13;;;6.32;;
20832;SDS011;56075;51.264;7.150;2023-06-22T04:50:12;12.73;;;6.13;;
20832;SDS011;56075;51.264;7.150;2023-06-22T04:52:43;12.43;;;6.25;;
20832;SDS011;56075;51.264;7.150;2023-06-22T04:55:15;11.20;;;6.15;;
20832;SDS011;56075;51.264;7.150;2023-06-22T04:57:50;9.85;;;6.53;;
20832;SDS011;56075;51.264;7.150;2023-06-22T05:00:21;12.90;;;6.63;;
20832;SDS011;56075;51.264;7.150;2023-06-22T05:02:53;9.90;;;6.60;;
20832;SDS011;56075;51.264;7.150;2023-06-22T05:05:27;13.02;;;6.28;;
20832;SDS011;56075;51.264;7.150;2023-06-22T05:08:00;11.80;;;7.68;;
20832;SDS011;56075;51.264;7.150;2023-06-22T05:10:32;9.35;;;6.13;;
20832;SDS011;56075;51.264;7.150;2023-06-22T05:13:04;10.38;;;5.88;;
20832;SDS011;56075;51.264;7.150;2023-06-22T05:15:35;12.18;;;6.88;;
20832;SDS011;56075;51.264;7.150;2023-06-22T05:18:10;10.32;;;6.68;;
20832;SDS011;56075;51.264;7.150;2023-06-22T05:20:42;10.00;;;5.70;;
20832;SDS011;56075;51.264;7.150;2023-06-22T05:23:13;13.95;;;6.40;;
20832;SDS011;56075;51.264;7.150;2023-06-22T05:25:45;10.40;;;6.50;;
20832;SDS011;56075;51.264;7.150;2023-06-22T05:28:16;9.68;;;6.57;;
20832;SDS011;56075;51.264;7.150;2023-06-22T05:30:47;12.10;;;6.53;;
20832;SDS011;56075;51.264;7.150;2023-06-22T05:33:18;13.57;;;7.05;;
20832;SDS011;56075;51.264;7.150;2023-06-22T05:35:49;16.65;;;6.45;;
20832;SDS011;56075;51.264;7.150;2023-06-22T05:38:20;14.05;;;7.03;;
20832;SDS011;56075;51.264;7.150;2023-06-22T05:40:52;11.45;;;6.90;;
20832;SDS011;56075;51.264;7.150;2023-06-22T05:43:23;12.80;;;6.90;;
20832;SDS011;56075;51.264;7.150;2023-06-22T05:45:54;14.32;;;6.75;;
20832;SDS011;56075;51.264;7.150;2023-06-22T05:48:25;10.50;;;6.47;;
20832;SDS011;56075;51.264;7.150;2023-06-22T05:50:56;11.55;;;6.43;;
20832;SDS011;56075;51.264;7.150;2023-06-22T05:53:27;12.07;;;6.10;;
20832;SDS011;56075;51.264;7.150;2023-06-22T05:55:58;16.70;;;7.50;;
20832;SDS011;56075;51.264;7.150;2023-06-22T05:58:30;9.82;;;6.28;;
20832;SDS011;56075;51.264;7.150;2023-06-22T06:01:01;17.05;;;7.07;;
20832;SDS011;56075;51.264;7.150;2023-06-22T06:03:32;17.65;;;7.38;;
20832;SDS011;56075;51.264;7.150;2023-06-22T06:06:03;13.15;;;6.90;;
20832;SDS011;56075;51.264;7.150;2023-06-22T06:08:34;12.88;;;6.47;;
20832;SDS011;56075;51.264;7.150;2023-06-22T06:11:05;13.30;;;6.68;;
20832;SDS011;56075;51.264;7.150;2023-06-22T06:13:36;12.60;;;7.45;;
20832;SDS011;56075;51.264;7.150;2023-06-22T06:16:07;13.50;;;7.60;;
20832;SDS011;56075;51.264;7.150;2023-06-22T06:18:39;18.35;;;7.20;;
20832;SDS011;56075;51.264;7.150;2023-06-22T06:21:10;11.10;;;6.75;;
20832;SDS011;56075;51.264;7.150;2023-06-22T06:23:41;10.38;;;6.30;;
20832;SDS011;56075;51.264;7.150;2023-06-22T06:26:12;13.77;;;6.65;;
20832;SDS011;56075;51.264;7.150;2023-06-22T06:28:46;12.73;;;6.78;;
20832;SDS011;56075;51.264;7.150;2023-06-22T06:31:17;12.95;;;7.22;;
20832;SDS011;56075;51.264;7.150;2023-06-22T06:33:49;12.85;;;6.70;;
20832;SDS011;56075;51.264;7.150;2023-06-22T06:36:20;15.60;;;7.30;;
20832;SDS011;56075;51.264;7.150;2023-06-22T06:38:51;14.23;;;7.55;;
20832;SDS011;56075;51.264;7.150;2023-06-22T06:41:22;11.65;;;7.15;;
20832;SDS011;56075;51.264;7.150;2023-06-22T06:43:53;11.65;;;7.45;;
20832;SDS011;56075;51.264;7.150;2023-06-22T06:46:25;13.88;;;7.50;;
20832;SDS011;56075;51.264;7.150;2023-06-22T06:48:56;14.25;;;7.97;;
20832;SDS011;56075;51.264;7.150;2023-06-22T06:51:27;14.65;;;7.65;;
20832;SDS011;56075;51.264;7.150;2023-06-22T06:53:58;14.65;;;8.68;;
20832;SDS011;56075;51.264;7.150;2023-06-22T06:56:29;17.05;;;9.05;;
20832;SDS011;56075;51.264;7.150;2023-06-22T06:59:00;16.83;;;9.15;;
20832;SDS011;56075;51.264;7.150;2023-06-22T07:01:31;17.45;;;9.52;;
20832;SDS011;56075;51.264;7.150;2023-06-22T07:04:04;18.92;;;9.80;;
20832;SDS011;56075;51.264;7.150;2023-06-22T07:06:35;19.50;;;10.50;;
20832;SDS011;56075;51.264;7.150;2023-06-22T07:09:06;18.27;;;10.57;;
20832;SDS011;56075;51.264;7.150;2023-06-22T07:11:37;17.80;;;10.05;;
20832;SDS011;56075;51.264;7.150;2023-06-22T07:14:08;22.95;;;10.88;;
20832;SDS011;56075;51.264;7.150;2023-06-22T07:16:39;17.05;;;10.68;;
20832;SDS011;56075;51.264;7.150;2023-06-22T07:19:11;21.70;;;11.75;;
20832;SDS011;56075;51.264;7.150;2023-06-22T07:21:43;34.17;;;12.90;;
20832;SDS011;56075;51.264;7.150;2023-06-22T07:24:14;28.48;;;13.80;;
20832;SDS011;56075;51.264;7.150;2023-06-22T07:26:47;28.00;;;14.63;;
20832;SDS011;56075;51.264;7.150;2023-06-22T07:29:19;29.58;;;15.80;;
20832;SDS011;56075;51.264;7.150;2023-06-22T07:31:51;31.65;;;16.83;;
20832;SDS011;56075;51.264;7.150;2023-06-22T07:34:23;30.75;;;16.08;;
20832;SDS011;56075;51.264;7.150;2023-06-22T07:36:54;27.63;;;16.20;;
20832;SDS011;56075;51.264;7.150;2023-06-22T07:41:59;29.77;;;16.52;;
20832;SDS011;56075;51.264;7.150;2023-06-22T07:44:30;28.20;;;16.65;;
20832;SDS011;56075;51.264;7.150;2023-06-22T07:47:01;27.60;;;16.98;;
20832;SDS011;56075;51.264;7.150;2023-06-22T07:49:32;29.25;;;17.40;;
20832;SDS011;56075;51.264;7.150;2023-06-22T07:52:03;29.45;;;17.30;;
20832;SDS011;56075;51.264;7.150;2023-06-22T07:54:35;31.77;;;17.85;;
20832;SDS011;56075;51.264;7.150;2023-06-22T07:57:06;25.48;;;16.50;;
20832;SDS011;56075;51.264;7.150;2023-06-22T07:59:37;31.77;;;16.80;;
20832;SDS011;56075;51.264;7.150;2023-06-22T08:02:09;27.35;;;16.80;;
20832;SDS011;56075;51.264;7.150;2023-06-22T08:04:40;30.33;;;17.85;;
20832;SDS011;56075;51.264;7.150;2023-06-22T08:07:12;28.15;;;17.00;;
20832;SDS011;56075;51.264;7.150;2023-06-22T08:09:46;26.50;;;16.65;;
20832;SDS011;56075;51.264;7.150;2023-06-22T08:12:19;27.48;;;17.02;;
20832;SDS011;56075;51.264;7.150;2023-06-22T08:14:50;24.38;;;15.55;;
20832;SDS011;56075;51.264;7.150;2023-06-22T08:17:21;26.58;;;15.95;;
20832;SDS011;56075;51.264;7.150;2023-06-22T08:20:17;25.33;;;15.68;;
20832;SDS011;56075;51.264;7.150;2023-06-22T08:22:49;25.13;;;15.88;;
20832;SDS011;56075;51.264;7.150;2023-06-22T08:25:20;24.05;;;15.95;;
20832;SDS011;56075;51.264;7.150;2023-06-22T08:27:51;24.83;;;15.18;;
20832;SDS011;56075;51.264;7.150;2023-06-22T08:30:22;25.92;;;15.00;;
20832;SDS011;56075;51.264;7.150;2023-06-22T08:32:54;21.65;;;14.75;;
20832;SDS011;56075;51.264;7.150;2023-06-22T08:35:25;24.25;;;14.15;;
20832;SDS011;56075;51.264;7.150;2023-06-22T08:37:57;22.95;;;14.30;;
20832;SDS011;56075;51.264;7.150;2023-06-22T08:40:30;23.95;;;14.57;;
20832;SDS011;56075;51.264;7.150;2023-06-22T08:43:01;19.75;;;14.23;;
20832;SDS011;56075;51.264;7.150;2023-06-22T08:45:32;17.42;;;12.60;;
20832;SDS011;56075;51.264;7.150;2023-06-22T08:48:04;20.50;;;13.02;;
20832;SDS011;56075;51.264;7.150;2023-06-22T08:50:35;21.15;;;13.85;;
20832;SDS011;56075;51.264;7.150;2023-06-22T08:53:06;16.83;;;11.27;;
20832;SDS011;56075;51.264;7.150;2023-06-22T08:55:37;16.95;;;11.68;;
20832;SDS011;56075;51.264;7.150;2023-06-22T08:58:08;15.13;;;10.48;;
20832;SDS011;56075;51.264;7.150;2023-06-22T09:00:39;18.45;;;11.38;;
20832;SDS011;56075;51.264;7.150;2023-06-22T09:03:10;13.85;;;10.27;;
20832;SDS011;56075;51.264;7.150;2023-06-22T09:05:42;19.23;;;11.77;;
20832;SDS011;56075;51.264;7.150;2023-06-22T09:08:13;16.98;;;10.55;;
20832;SDS011;56075;51.264;7.150;2023-06-22T09:10:44;16.75;;;10.07;;
20832;SDS011;56075;51.264;7.150;2023-06-22T09:13:15;14.35;;;9.48;;
20832;SDS011;56075;51.264;7.150;2023-06-22T09:15:46;13.30;;;9.40;;
20832;SDS011;56075;51.264;7.150;2023-06-22T09:18:17;16.80;;;9.30;;
20832;SDS011;56075;51.264;7.150;2023-06-22T09:20:48;14.07;;;9.13;;
20832;SDS011;56075;51.264;7.150;2023-06-22T09:23:20;13.75;;;8.43;;
20832;SDS011;56075;51.264;7.150;2023-06-22T09:25:51;11.20;;;7.63;;
20832;SDS011;56075;51.264;7.150;2023-06-22T09:28:22;10.90;;;7.47;;
20832;SDS011;56075;51.264;7.150;2023-06-22T09:30:53;10.57;;;7.47;;
20832;SDS011;56075;51.264;7.150;2023-06-22T09:33:29;13.20;;;7.32;;
20832;SDS011;56075;51.264;7.150;2023-06-22T09:36:00;12.77;;;6.95;;
20832;SDS011;56075;51.264;7.150;2023-06-22T09:38:31;10.85;;;7.10;;
20832;SDS011;56075;51.264;7.150;2023-06-22T09:41:04;9.98;;;7.00;;
20832;SDS011;56075;51.264;7.150;2023-06-22T09:43:36;11.50;;;7.10;;
20832;SDS011;56075;51.264;7.150;2023-06-22T09:46:07;10.30;;;6.93;;
20832;SDS011;56075;51.264;7.150;2023-06-22T09:48:39;9.65;;;6.50;;
20832;SDS011;56075;51.264;7.150;2023-06-22T09:51:11;12.93;;;6.78;;
20832;SDS011;56075;51.264;7.150;2023-06-22T09:53:42;13.73;;;7.55;;
20832;SDS011;56075;51.264;7.150;2023-06-22T09:56:13;9.88;;;6.57;;
20832;SDS011;56075;51.264;7.150;2023-06-22T09:58:46;11.52;;;7.03;;
20832;SDS011;56075;51.264;7.150;2023-06-22T10:01:18;12.00;;;6.80;;
20832;SDS011;56075;51.264;7.150;2023-06-22T10:03:49;11.50;;;7.60;;
20832;SDS011;56075;51.264;7.150;2023-06-22T10:06:20;11.07;;;7.00;;
20832;SDS011;56075;51.264;7.150;2023-06-22T10:08:51;11.50;;;7.75;;
20832;SDS011;56075;51.264;7.150;2023-06-22T10:11:22;9.70;;;7.32;;
20832;SDS011;56075;51.264;7.150;2023-06-22T10:13:59;10.10;;;7.15;;
20832;SDS011;56075;51.264;7.150;2023-06-22T10:16:31;13.10;;;7.25;;
20832;SDS011;56075;51.264;7.150;2023-06-22T10:19:03;12.50;;;7.53;;
20832;SDS011;56075;51.264;7.150;2023-06-22T10:21:34;9.73;;;7.20;;
20832;SDS011;56075;51.264;7.150;2023-06-22T10:24:05;13.60;;;6.97;;
20832;SDS011;56075;51.264;7.150;2023-06-22T10:26:36;11.38;;;6.78;;
20832;SDS011;56075;51.264;7.150;2023-06-22T10:29:07;14.65;;;7.40;;
20832;SDS011;56075;51.264;7.150;2023-06-22T10:31:38;11.77;;;7.38;;
20832;SDS011;56075;51.264;7.150;2023-06-22T10:34:10;12.63;;;8.30;;
20832;SDS011;56075;51.264;7.150;2023-06-22T10:36:41;10.85;;;7.93;;
20832;SDS011;56075;51.264;7.150;2023-06-22T10:39:12;10.38;;;7.82;;
20832;SDS011;56075;51.264;7.150;2023-06-22T10:41:43;12.70;;;8.10;;
20832;SDS011;56075;51.264;7.150;2023-06-22T10:44:14;13.23;;;8.70;;
20832;SDS011;56075;51.264;7.150;2023-06-22T10:46:45;16.65;;;8.68;;
20832;SDS011;56075;51.264;7.150;2023-06-22T10:49:16;12.88;;;8.80;;
20832;SDS011;56075;51.264;7.150;2023-06-22T10:51:48;12.18;;;8.55;;
20832;SDS011;56075;51.264;7.150;2023-06-22T10:54:19;13.38;;;8.43;;
20832;SDS011;56075;51.264;7.150;2023-06-22T10:56:50;13.75;;;8.70;;
20832;SDS011;56075;51.264;7.150;2023-06-22T10:59:21;14.05;;;8.90;;
20832;SDS011;56075;51.264;7.150;2023-06-22T11:01:55;16.15;;;9.00;;
20832;SDS011;56075;51.264;7.150;2023-06-22T11:04:26;16.73;;;10.18;;
20832;SDS011;56075;51.264;7.150;2023-06-22T11:06:57;16.23;;;10.40;;
20832;SDS011;56075;51.264;7.150;2023-06-22T11:09:28;15.98;;;10.52;;
20832;SDS011;56075;51.264;7.150;2023-06-22T11:12:00;18.65;;;11.48;;
20832;SDS011;56075;51.264;7.150;2023-06-22T11:14:31;23.23;;;11.65;;
20832;SDS011;56075;51.264;7.150;2023-06-22T11:17:04;19.38;;;12.45;;
20832;SDS011;56075;51.264;7.150;2023-06-22T11:19:35;18.33;;;11.93;;
20832;SDS011;56075;51.264;7.150;2023-06-22T11:22:07;22.40;;;13.77;;
20832;SDS011;56075;51.264;7.150;2023-06-22T11:24:38;24.60;;;13.85;;
20832;SDS011;56075;51.264;7.150;2023-06-22T11:27:09;25.52;;;14.57;;
20832;SDS011;56075;51.264;7.150;2023-06-22T11:29:40;32.38;;;16.17;;
20832;SDS011;56075;51.264;7.150;2023-06-22T11:32:11;27.02;;;15.63;;
20832;SDS011;56075;51.264;7.150;2023-06-22T11:34:43;24.23;;;14.63;;
20832;SDS011;56075;51.264;7.150;2023-06-22T11:37:14;27.40;;;14.85;;
20832;SDS011;56075;51.264;7.150;2023-06-22T11:39:45;31.15;;;16.65;;
20832;SDS011;56075;51.264;7.150;2023-06-22T11:42:17;33.45;;;17.25;;
20832;SDS011;56075;51.264;7.150;2023-06-22T11:44:48;35.00;;;17.10;;
20832;SDS011;56075;51.264;7.150;2023-06-22T11:47:19;37.30;;;18.85;;
20832;SDS011;56075;51.264;7.150;2023-06-22T11:49:50;33.60;;;18.77;;
20832;SDS011;56075;51.264;7.150;2023-06-22T11:52:21;39.42;;;19.92;;
20832;SDS011;56075;51.264;7.150;2023-06-22T11:54:52;48.42;;;22.23;;
20832;SDS011;56075;51.264;7.150;2023-06-22T11:57:23;43.35;;;21.65;;
20832;SDS011;56075;51.264;7.150;2023-06-22T11:59:54;41.30;;;21.63;;
20832;SDS011;56075;51.264;7.150;2023-06-22T12:02:26;36.35;;;20.05;;
20832;SDS011;56075;51.264;7.150;2023-06-22T12:04:57;36.95;;;20.77;;
20832;SDS011;56075;51.264;7.150;2023-06-22T12:07:28;45.83;;;22.75;;
20832;SDS011;56075;51.264;7.150;2023-06-22T12:10:00;50.15;;;23.58;;
20832;SDS011;56075;51.264;7.150;2023-06-22T12:12:31;44.47;;;23.00;;
20832;SDS011;56075;51.264;7.150;2023-06-22T12:15:03;41.05;;;22.35;;
20832;SDS011;56075;51.264;7.150;2023-06-22T12:17:34;41.30;;;22.95;;
20832;SDS011;56075;51.264;7.150;2023-06-22T12:20:06;38.72;;;20.55;;
20832;SDS011;56075;51.264;7.150;2023-06-22T12:22:38;32.63;;;19.50;;
20832;SDS011;56075;51.264;7.150;2023-06-22T12:25:09;28.80;;;16.95;;
20832;SDS011;56075;51.264;7.150;2023-06-22T12:27:40;29.48;;;17.98;;
20832;SDS011;56075;51.264;7.150;2023-06-22T12:30:11;33.17;;;19.02;;
20832;SDS011;56075;51.264;7.150;2023-06-22T12:32:42;36.35;;;19.55;;
20832;SDS011;56075;51.264;7.150;2023-06-22T12:35:14;34.28;;;18.35;;
20832;SDS011;56075;51.264;7.150;2023-06-22T12:37:45;33.35;;;18.77;;
20832;SDS011;56075;51.264;7.150;2023-06-22T12:40:16;32.80;;;19.05;;
20832;SDS011;56075;51.264;7.150;2023-06-22T12:42:47;32.83;;;19.15;;
20832;SDS011;56075;51.264;7.150;2023-06-22T12:45:20;32.90;;;18.52;;
20832;SDS011;56075;51.264;7.150;2023-06-22T12:47:51;29.00;;;17.88;;
20832;SDS011;56075;51.264;7.150;2023-06-22T12:50:23;27.25;;;17.13;;
20832;SDS011;56075;51.264;7.150;2023-06-22T12:52:54;27.67;;;17.33;;
20832;SDS011;56075;51.264;7.150;2023-06-22T12:55:25;27.73;;;16.10;;
20832;SDS011;56075;51.264;7.150;2023-06-22T12:57:56;26.58;;;15.98;;
20832;SDS011;56075;51.264;7.150;2023-06-22T13:00:27;25.45;;;16.40;;
20832;SDS011;56075;51.264;7.150;2023-06-22T13:02:58;23.23;;;15.07;;
20832;SDS011;56075;51.264;7.150;2023-06-22T13:05:30;23.88;;;15.05;;
20832;SDS011;56075;51.264;7.150;2023-06-22T13:08:01;21.80;;;14.95;;
20832;SDS011;56075;51.264;7.150;2023-06-22T13:10:32;21.58;;;13.93;;
20832;SDS011;56075;51.264;7.150;2023-06-22T13:13:03;22.58;;;14.32;;
20832;SDS011;56075;51.264;7.150;2023-06-22T13:15:35;19.90;;;13.02;;
20832;SDS011;56075;51.264;7.150;2023-06-22T13:18:06;21.48;;;12.50;;
20832;SDS011;56075;51.264;7.150;2023-06-22T13:20:37;17.70;;;11.73;;
20832;SDS011;56075;51.264;7.150;2023-06-22T13:23:08;17.20;;;12.27;;
20832;SDS011;56075;51.264;7.150;2023-06-22T13:25:39;16.80;;;11.88;;
20832;SDS011;56075;51.264;7.150;2023-06-22T13:28:10;15.30;;;10.88;;
20832;SDS011;56075;51.264;7.150;2023-06-22T13:30:44;16.05;;;10.98;;
20832;SDS011;56075;51.264;7.150;2023-06-22T13:33:17;17.00;;;11.32;;
20832;SDS011;56075;51.264;7.150;2023-06-22T13:35:48;16.40;;;11.05;;
20832;SDS011;56075;51.264;7.150;2023-06-22T13:38:20;16.42;;;10.90;;
20832;SDS011;56075;51.264;7.150;2023-06-22T13:40:51;15.98;;;10.73;;
20832;SDS011;56075;51.264;7.150;2023-06-22T13:43:22;17.42;;;10.15;;
20832;SDS011;56075;51.264;7.150;2023-06-22T13:45:53;16.08;;;10.68;;
20832;SDS011;56075;51.264;7.150;2023-06-22T13:48:25;15.82;;;11.13;;
20832;SDS011;56075;51.264;7.150;2023-06-22T13:50:56;15.15;;;10.15;;
20832;SDS011;56075;51.264;7.150;2023-06-22T13:53:27;15.57;;;10.10;;
20832;SDS011;56075;51.264;7.150;2023-06-22T13:55:59;16.85;;;10.07;;
20832;SDS011;56075;51.264;7.150;2023-06-22T13:58:30;14.10;;;10.02;;
20832;SDS011;56075;51.264;7.150;2023-06-22T14:01:01;16.02;;;9.95;;
20832;SDS011;56075;51.264;7.150;2023-06-22T14:03:32;15.18;;;10.25;;
20832;SDS011;56075;51.264;7.150;2023-06-22T14:06:03;13.32;;;9.23;;
20832;SDS011;56075;51.264;7.150;2023-06-22T14:08:37;13.93;;;8.82;;
20832;SDS011;56075;51.264;7.150;2023-06-22T14:11:08;13.40;;;9.05;;
20832;SDS011;56075;51.264;7.150;2023-06-22T14:13:40;13.82;;;9.18;;
20832;SDS011;56075;51.264;7.150;2023-06-22T14:16:14;14.27;;;9.20;;
20832;SDS011;56075;51.264;7.150;2023-06-22T14:18:45;14.82;;;9.50;;
20832;SDS011;56075;51.264;7.150;2023-06-22T14:21:16;14.60;;;9.88;;
20832;SDS011;56075;51.264;7.150;2023-06-22T14:23:47;17.42;;;8.98;;
20832;SDS011;56075;51.264;7.150;2023-06-22T14:26:20;11.55;;;8.75;;
20832;SDS011;56075;51.264;7.150;2023-06-22T14:28:53;15.52;;;9.95;;
20832;SDS011;56075;51.264;7.150;2023-06-22T14:31:24;14.52;;;9.05;;
20832;SDS011;56075;51.264;7.150;2023-06-22T14:33:55;12.38;;;8.80;;
20832;SDS011;56075;51.264;7.150;2023-06-22T14:36:26;12.48;;;9.18;;
20832;SDS011;56075;51.264;7.150;2023-06-22T14:38:57;12.63;;;8.77;;
20832;SDS011;56075;51.264;7.150;2023-06-22T14:41:29;11.73;;;8.40;;
20832;SDS011;56075;51.264;7.150;2023-06-22T14:44:00;11.63;;;8.10;;
20832;SDS011;56075;51.264;7.150;2023-06-22T14:46:32;14.95;;;8.57;;
20832;SDS011;56075;51.264;7.150;2023-06-22T14:49:03;11.65;;;8.27;;
20832;SDS011;56075;51.264;7.150;2023-06-22T14:51:34;11.00;;;7.65;;
20832;SDS011;56075;51.264;7.150;2023-06-22T14:54:05;10.35;;;7.63;;
20832;SDS011;56075;51.264;7.150;2023-06-22T14:56:36;12.38;;;7.70;;
20832;SDS011;56075;51.264;7.150;2023-06-22T14:59:08;13.85;;;8.50;;
20832;SDS011;56075;51.264;7.150;2023-06-22T15:01:39;13.75;;;8.40;;
20832;SDS011;56075;51.264;7.150;2023-06-22T15:04:10;11.65;;;8.00;;
20832;SDS011;56075;51.264;7.150;2023-06-22T15:06:41;11.70;;;7.93;;
20832;SDS011;56075;51.264;7.150;2023-06-22T15:09:12;12.48;;;8.15;;
20832;SDS011;56075;51.264;7.150;2023-06-22T15:11:44;14.35;;;8.68;;